sensor_id;sensor_type;location;lat;lon;timestamp;P1;durP1;ratioP1;P2;durP2;ratioP2
80679;SDS011;70043;51.982;-8.514;2023-06-22T00:00:53;4.82;;;2.08;;
80679;SDS011;70043;51.982;-8.514;2023-06-22T00:03:22;5.85;;;2.78;;
80679;SDS011;70043;51.982;-8.514;2023-06-22T00:05:51;6.03;;;2.72;;
80679;SDS011;70043;51.982;-8.514;2023-06-22T00:08:19;6.53;;;3.15;;
80679;SDS011;70043;51.982;-8.514;2023-06-22T00:10:47;5.70;;;3.22;;
80679;SDS011;70043;51.982;-8.514;2023-06-22T00:13:15;5.07;;;2.50;;
80679;SDS011;70043;51.982;-8.514;2023-06-22T00:15:43;5.68;;;2.67;;
80679;SDS011;70043;51.982;-8.514;2023-06-22T00:18:13;5.10;;;2.80;;
80679;SDS011;70043;51.982;-8.514;2023-06-22T00:20:41;4.68;;;3.15;;
80679;SDS011;70043;51.982;-8.514;2023-06-22T00:23:10;7.80;;;3.47;;
80679;SDS011;70043;51.982;-8.514;2023-06-22T00:25:39;6.32;;;2.83;;
80679;SDS011;70043;51.982;-8.514;2023-06-22T00:28:07;6.60;;;2.90;;
80679;SDS011;70043;51.982;-8.514;2023-06-22T00:30:35;4.88;;;2.33;;
80679;SDS011;70043;51.982;-8.514;2023-06-22T00:33:03;5.20;;;2.50;;
80679;SDS011;70043;51.982;-8.514;2023-06-22T00:35:34;5.93;;;3.05;;
80679;SDS011;70043;51.982;-8.514;2023-06-22T00:38:02;5.13;;;2.78;;
80679;SDS011;70043;51.982;-8.514;2023-06-22T00:40:30;4.13;;;2.25;;
80679;SDS011;70043;51.982;-8.514;2023-06-22T00:42:59;3.92;;;2.13;;
80679;SDS011;70043;51.982;-8.514;2023-06-22T00:45:29;7.80;;;2.70;;
80679;SDS011;70043;51.982;-8.514;2023-06-22T00:47:57;3.72;;;2.40;;
80679;SDS011;70043;51.982;-8.514;2023-06-22T00:50:26;7.65;;;2.60;;
80679;SDS011;70043;51.982;-8.514;2023-06-22T00:53:01;6.65;;;2.30;;
80679;SDS011;70043;51.982;-8.514;2023-06-22T00:55:33;5.20;;;2.25;;
80679;SDS011;70043;51.982;-8.514;2023-06-22T00:58:04;4.20;;;2.40;;
80679;SDS011;70043;51.982;-8.514;2023-06-22T01:00:35;3.90;;;2.30;;
80679;SDS011;70043;51.982;-8.514;2023-06-22T01:03:03;3.90;;;2.50;;
80679;SDS011;70043;51.982;-8.514;2023-06-22T01:05:34;5.45;;;2.72;;
80679;SDS011;70043;51.982;-8.514;2023-06-22T01:08:12;4.15;;;2.65;;
80679;SDS011;70043;51.982;-8.514;2023-06-22T01:10:53;4.78;;;2.75;;
80679;SDS011;70043;51.982;-8.514;2023-06-22T01:13:28;4.63;;;2.50;;
80679;SDS011;70043;51.982;-8.514;2023-06-22T01:16:00;4.72;;;2.67;;
80679;SDS011;70043;51.982;-8.514;2023-06-22T01:21:03;5.18;;;2.60;;
80679;SDS011;70043;51.982;-8.514;2023-06-22T01:23:41;4.10;;;1.67;;
80679;SDS011;70043;51.982;-8.514;2023-06-22T01:26:28;6.50;;;2.65;;
80679;SDS011;70043;51.982;-8.514;2023-06-22T01:29:03;5.05;;;2.20;;
80679;SDS011;70043;51.982;-8.514;2023-06-22T01:31:32;4.78;;;2.22;;
80679;SDS011;70043;51.982;-8.514;2023-06-22T01:34:01;4.03;;;2.13;;
80679;SDS011;70043;51.982;-8.514;2023-06-22T01:36:30;6.78;;;2.70;;
80679;SDS011;70043;51.982;-8.514;2023-06-22T01:38:59;4.53;;;2.13;;
80679;SDS011;70043;51.982;-8.514;2023-06-22T01:41:29;3.38;;;2.00;;
80679;SDS011;70043;51.982;-8.514;2023-06-22T01:44:04;2.80;;;1.50;;
80679;SDS011;70043;51.982;-8.514;2023-06-22T01:46:33;3.88;;;2.10;;
80679;SDS011;70043;51.982;-8.514;2023-06-22T01:49:02;3.25;;;2.13;;
80679;SDS011;70043;51.982;-8.514;2023-06-22T01:51:32;5.75;;;2.03;;
80679;SDS011;70043;51.982;-8.514;2023-06-22T01:54:00;3.78;;;1.77;;
80679;SDS011;70043;51.982;-8.514;2023-06-22T01:56:28;4.30;;;2.15;;
80679;SDS011;70043;51.982;-8.514;2023-06-22T01:58:57;3.28;;;2.00;;
80679;SDS011;70043;51.982;-8.514;2023-06-22T02:04:01;3.47;;;1.80;;
80679;SDS011;70043;51.982;-8.514;2023-06-22T02:06:31;3.72;;;2.20;;
80679;SDS011;70043;51.982;-8.514;2023-06-22T02:09:02;4.50;;;2.42;;
80679;SDS011;70043;51.982;-8.514;2023-06-22T02:14:01;4.65;;;2.05;;
80679;SDS011;70043;51.982;-8.514;2023-06-22T02:16:32;3.15;;;2.10;;
80679;SDS011;70043;51.982;-8.514;2023-06-22T02:19:00;4.43;;;2.03;;
80679;SDS011;70043;51.982;-8.514;2023-06-22T02:21:29;4.43;;;2.20;;
80679;SDS011;70043;51.982;-8.514;2023-06-22T02:23:57;3.83;;;1.98;;
80679;SDS011;70043;51.982;-8.514;2023-06-22T02:26:25;6.85;;;1.70;;
80679;SDS011;70043;51.982;-8.514;2023-06-22T02:28:53;3.28;;;1.52;;
80679;SDS011;70043;51.982;-8.514;2023-06-22T02:31:21;2.65;;;1.80;;
80679;SDS011;70043;51.982;-8.514;2023-06-22T02:33:57;2.92;;;1.48;;
80679;SDS011;70043;51.982;-8.514;2023-06-22T02:39:47;3.72;;;1.50;;
80679;SDS011;70043;51.982;-8.514;2023-06-22T02:42:15;7.00;;;1.83;;
80679;SDS011;70043;51.982;-8.514;2023-06-22T02:44:45;3.78;;;1.88;;
80679;SDS011;70043;51.982;-8.514;2023-06-22T02:47:13;4.00;;;1.38;;
80679;SDS011;70043;51.982;-8.514;2023-06-22T02:49:43;3.95;;;1.45;;
80679;SDS011;70043;51.982;-8.514;2023-06-22T02:52:11;4.72;;;1.55;;
80679;SDS011;70043;51.982;-8.514;2023-06-22T02:54:39;4.53;;;1.15;;
80679;SDS011;70043;51.982;-8.514;2023-06-22T02:57:07;2.92;;;1.85;;
80679;SDS011;70043;51.982;-8.514;2023-06-22T02:59:38;4.55;;;1.63;;
80679;SDS011;70043;51.982;-8.514;2023-06-22T03:02:07;4.63;;;1.85;;
80679;SDS011;70043;51.982;-8.514;2023-06-22T03:04:36;3.53;;;2.25;;
80679;SDS011;70043;51.982;-8.514;2023-06-22T03:07:06;1.85;;;1.00;;
80679;SDS011;70043;51.982;-8.514;2023-06-22T03:09:33;3.40;;;1.23;;
80679;SDS011;70043;51.982;-8.514;2023-06-22T03:12:02;2.55;;;1.48;;
80679;SDS011;70043;51.982;-8.514;2023-06-22T03:14:30;2.85;;;1.45;;
80679;SDS011;70043;51.982;-8.514;2023-06-22T03:16:58;4.32;;;1.50;;
80679;SDS011;70043;51.982;-8.514;2023-06-22T03:19:28;3.10;;;1.45;;
80679;SDS011;70043;51.982;-8.514;2023-06-22T03:21:56;4.07;;;1.30;;
80679;SDS011;70043;51.982;-8.514;2023-06-22T03:24:27;5.63;;;1.70;;
80679;SDS011;70043;51.982;-8.514;2023-06-22T03:26:55;4.25;;;1.85;;
80679;SDS011;70043;51.982;-8.514;2023-06-22T03:29:23;4.88;;;1.52;;
80679;SDS011;70043;51.982;-8.514;2023-06-22T03:31:51;2.85;;;1.45;;
80679;SDS011;70043;51.982;-8.514;2023-06-22T03:34:19;2.60;;;1.38;;
80679;SDS011;70043;51.982;-8.514;2023-06-22T03:36:47;2.53;;;1.60;;
80679;SDS011;70043;51.982;-8.514;2023-06-22T03:39:15;3.40;;;1.65;;
80679;SDS011;70043;51.982;-8.514;2023-06-22T03:41:45;3.38;;;1.38;;
80679;SDS011;70043;51.982;-8.514;2023-06-22T03:44:13;2.30;;;1.52;;
80679;SDS011;70043;51.982;-8.514;2023-06-22T03:46:43;3.08;;;1.20;;
80679;SDS011;70043;51.982;-8.514;2023-06-22T03:49:11;6.03;;;1.75;;
80679;SDS011;70043;51.982;-8.514;2023-06-22T03:51:39;2.08;;;1.40;;
80679;SDS011;70043;51.982;-8.514;2023-06-22T03:54:07;3.15;;;1.30;;
80679;SDS011;70043;51.982;-8.514;2023-06-22T03:56:34;3.92;;;1.42;;
80679;SDS011;70043;51.982;-8.514;2023-06-22T03:59:05;1.63;;;1.10;;
80679;SDS011;70043;51.982;-8.514;2023-06-22T04:01:32;4.10;;;1.33;;
80679;SDS011;70043;51.982;-8.514;2023-06-22T04:04:00;2.53;;;1.45;;
80679;SDS011;70043;51.982;-8.514;2023-06-22T04:06:28;2.50;;;1.35;;
80679;SDS011;70043;51.982;-8.514;2023-06-22T04:08:56;1.42;;;0.93;;
80679;SDS011;70043;51.982;-8.514;2023-06-22T04:11:23;2.20;;;1.05;;
80679;SDS011;70043;51.982;-8.514;2023-06-22T04:13:51;2.40;;;1.88;;
80679;SDS011;70043;51.982;-8.514;2023-06-22T04:16:21;3.17;;;1.33;;
80679;SDS011;70043;51.982;-8.514;2023-06-22T04:18:48;5.72;;;1.80;;
80679;SDS011;70043;51.982;-8.514;2023-06-22T04:21:16;2.63;;;1.27;;
80679;SDS011;70043;51.982;-8.514;2023-06-22T04:23:46;4.20;;;1.52;;
80679;SDS011;70043;51.982;-8.514;2023-06-22T04:26:18;3.42;;;1.58;;
80679;SDS011;70043;51.982;-8.514;2023-06-22T04:28:46;2.28;;;1.27;;
80679;SDS011;70043;51.982;-8.514;2023-06-22T04:31:22;2.55;;;1.42;;
80679;SDS011;70043;51.982;-8.514;2023-06-22T04:33:59;3.70;;;1.45;;
80679;SDS011;70043;51.982;-8.514;2023-06-22T04:36:31;1.73;;;1.17;;
80679;SDS011;70043;51.982;-8.514;2023-06-22T04:39:04;3.83;;;1.52;;
80679;SDS011;70043;51.982;-8.514;2023-06-22T04:41:34;2.80;;;1.40;;
80679;SDS011;70043;51.982;-8.514;2023-06-22T04:44:08;4.05;;;1.33;;
80679;SDS011;70043;51.982;-8.514;2023-06-22T04:46:38;5.15;;;1.42;;
80679;SDS011;70043;51.982;-8.514;2023-06-22T04:49:06;3.33;;;1.80;;
80679;SDS011;70043;51.982;-8.514;2023-06-22T04:51:44;2.85;;;2.03;;
80679;SDS011;70043;51.982;-8.514;2023-06-22T04:54:12;5.78;;;1.85;;
80679;SDS011;70043;51.982;-8.514;2023-06-22T04:56:41;3.10;;;1.75;;
80679;SDS011;70043;51.982;-8.514;2023-06-22T04:59:13;3.30;;;1.50;;
80679;SDS011;70043;51.982;-8.514;2023-06-22T05:01:45;3.13;;;1.95;;
80679;SDS011;70043;51.982;-8.514;2023-06-22T05:04:14;3.67;;;2.00;;
80679;SDS011;70043;51.982;-8.514;2023-06-22T05:06:42;3.13;;;1.85;;
80679;SDS011;70043;51.982;-8.514;2023-06-22T05:09:11;2.72;;;1.20;;
80679;SDS011;70043;51.982;-8.514;2023-06-22T05:11:40;2.13;;;1.40;;
80679;SDS011;70043;51.982;-8.514;2023-06-22T05:14:10;5.45;;;1.95;;
80679;SDS011;70043;51.982;-8.514;2023-06-22T05:16:38;1.48;;;1.00;;
80679;SDS011;70043;51.982;-8.514;2023-06-22T05:19:09;4.05;;;2.22;;
80679;SDS011;70043;51.982;-8.514;2023-06-22T05:21:37;2.80;;;1.70;;
80679;SDS011;70043;51.982;-8.514;2023-06-22T05:24:05;5.93;;;2.00;;
80679;SDS011;70043;51.982;-8.514;2023-06-22T05:26:34;9.65;;;1.63;;
80679;SDS011;70043;51.982;-8.514;2023-06-22T05:29:02;3.10;;;1.65;;
80679;SDS011;70043;51.982;-8.514;2023-06-22T05:31:31;2.40;;;1.55;;
80679;SDS011;70043;51.982;-8.514;2023-06-22T05:33:59;1.60;;;1.25;;
80679;SDS011;70043;51.982;-8.514;2023-06-22T05:36:28;2.83;;;1.67;;
80679;SDS011;70043;51.982;-8.514;2023-06-22T05:38:57;6.40;;;1.92;;
80679;SDS011;70043;51.982;-8.514;2023-06-22T05:41:37;3.72;;;1.58;;
80679;SDS011;70043;51.982;-8.514;2023-06-22T05:44:04;3.10;;;1.50;;
80679;SDS011;70043;51.982;-8.514;2023-06-22T05:46:32;3.97;;;1.60;;
80679;SDS011;70043;51.982;-8.514;2023-06-22T05:49:00;2.78;;;1.60;;
80679;SDS011;70043;51.982;-8.514;2023-06-22T05:51:29;3.55;;;1.73;;
80679;SDS011;70043;51.982;-8.514;2023-06-22T05:53:57;4.63;;;1.63;;
80679;SDS011;70043;51.982;-8.514;2023-06-22T05:56:25;8.30;;;2.67;;
80679;SDS011;70043;51.982;-8.514;2023-06-22T05:58:54;4.13;;;1.65;;
80679;SDS011;70043;51.982;-8.514;2023-06-22T06:01:21;4.47;;;1.85;;
80679;SDS011;70043;51.982;-8.514;2023-06-22T06:03:52;6.20;;;1.88;;
80679;SDS011;70043;51.982;-8.514;2023-06-22T06:06:19;2.50;;;1.58;;
80679;SDS011;70043;51.982;-8.514;2023-06-22T06:08:55;3.10;;;1.70;;
80679;SDS011;70043;51.982;-8.514;2023-06-22T06:11:27;4.70;;;2.97;;
80679;SDS011;70043;51.982;-8.514;2023-06-22T06:13:57;5.03;;;1.27;;
80679;SDS011;70043;51.982;-8.514;2023-06-22T06:16:25;2.97;;;1.75;;
80679;SDS011;70043;51.982;-8.514;2023-06-22T06:18:52;4.30;;;1.60;;
80679;SDS011;70043;51.982;-8.514;2023-06-22T06:21:24;4.43;;;1.35;;
80679;SDS011;70043;51.982;-8.514;2023-06-22T06:23:52;2.53;;;1.38;;
80679;SDS011;70043;51.982;-8.514;2023-06-22T06:26:24;4.78;;;2.33;;
80679;SDS011;70043;51.982;-8.514;2023-06-22T06:28:55;3.33;;;1.50;;
80679;SDS011;70043;51.982;-8.514;2023-06-22T06:31:25;3.38;;;1.73;;
80679;SDS011;70043;51.982;-8.514;2023-06-22T06:33:53;4.97;;;1.98;;
80679;SDS011;70043;51.982;-8.514;2023-06-22T06:36:21;4.28;;;1.73;;
80679;SDS011;70043;51.982;-8.514;2023-06-22T06:38:49;3.17;;;1.90;;
80679;SDS011;70043;51.982;-8.514;2023-06-22T06:41:20;4.43;;;1.90;;
80679;SDS011;70043;51.982;-8.514;2023-06-22T06:43:48;3.42;;;1.95;;
80679;SDS011;70043;51.982;-8.514;2023-06-22T06:46:17;4.43;;;2.28;;
80679;SDS011;70043;51.982;-8.514;2023-06-22T06:48:45;2.45;;;1.77;;
80679;SDS011;70043;51.982;-8.514;2023-06-22T06:51:14;3.90;;;1.83;;
80679;SDS011;70043;51.982;-8.514;2023-06-22T06:53:42;3.97;;;2.33;;
80679;SDS011;70043;51.982;-8.514;2023-06-22T06:56:09;3.60;;;2.17;;
80679;SDS011;70043;51.982;-8.514;2023-06-22T06:58:40;4.40;;;2.22;;
80679;SDS011;70043;51.982;-8.514;2023-06-22T07:01:10;3.50;;;1.73;;
80679;SDS011;70043;51.982;-8.514;2023-06-22T07:03:40;3.88;;;1.88;;
80679;SDS011;70043;51.982;-8.514;2023-06-22T07:06:13;2.35;;;1.55;;
80679;SDS011;70043;51.982;-8.514;2023-06-22T07:08:41;5.80;;;1.80;;
80679;SDS011;70043;51.982;-8.514;2023-06-22T07:11:09;6.90;;;2.78;;
80679;SDS011;70043;51.982;-8.514;2023-06-22T07:13:38;4.95;;;2.40;;
80679;SDS011;70043;51.982;-8.514;2023-06-22T07:16:07;6.15;;;2.90;;
80679;SDS011;70043;51.982;-8.514;2023-06-22T07:18:35;4.80;;;2.35;;
80679;SDS011;70043;51.982;-8.514;2023-06-22T07:21:03;4.13;;;1.92;;
80679;SDS011;70043;51.982;-8.514;2023-06-22T07:23:32;4.68;;;2.10;;
80679;SDS011;70043;51.982;-8.514;2023-06-22T07:26:01;4.70;;;2.38;;
80679;SDS011;70043;51.982;-8.514;2023-06-22T07:28:31;10.10;;;2.42;;
80679;SDS011;70043;51.982;-8.514;2023-06-22T07:31:03;6.25;;;2.30;;
80679;SDS011;70043;51.982;-8.514;2023-06-22T07:33:31;10.20;;;3.42;;
80679;SDS011;70043;51.982;-8.514;2023-06-22T07:35:59;6.57;;;2.63;;
80679;SDS011;70043;51.982;-8.514;2023-06-22T07:38:33;6.15;;;2.67;;
80679;SDS011;70043;51.982;-8.514;2023-06-22T07:41:01;5.50;;;3.33;;
80679;SDS011;70043;51.982;-8.514;2023-06-22T07:43:30;4.65;;;2.25;;
80679;SDS011;70043;51.982;-8.514;2023-06-22T07:46:09;5.20;;;2.92;;
80679;SDS011;70043;51.982;-8.514;2023-06-22T07:48:37;6.13;;;2.92;;
80679;SDS011;70043;51.982;-8.514;2023-06-22T07:51:09;5.70;;;3.22;;
80679;SDS011;70043;51.982;-8.514;2023-06-22T07:53:47;5.47;;;2.58;;
80679;SDS011;70043;51.982;-8.514;2023-06-22T07:56:15;4.55;;;2.63;;
80679;SDS011;70043;51.982;-8.514;2023-06-22T07:58:44;5.35;;;3.20;;
80679;SDS011;70043;51.982;-8.514;2023-06-22T08:01:13;5.38;;;3.10;;
80679;SDS011;70043;51.982;-8.514;2023-06-22T08:03:41;4.50;;;2.80;;
80679;SDS011;70043;51.982;-8.514;2023-06-22T08:06:09;6.10;;;3.47;;
80679;SDS011;70043;51.982;-8.514;2023-06-22T08:08:37;5.40;;;2.72;;
80679;SDS011;70043;51.982;-8.514;2023-06-22T08:11:05;5.70;;;2.83;;
80679;SDS011;70043;51.982;-8.514;2023-06-22T08:13:33;6.82;;;3.00;;
80679;SDS011;70043;51.982;-8.514;2023-06-22T08:16:01;5.50;;;2.90;;
80679;SDS011;70043;51.982;-8.514;2023-06-22T08:18:33;4.10;;;2.17;;
80679;SDS011;70043;51.982;-8.514;2023-06-22T08:21:01;4.40;;;2.08;;
80679;SDS011;70043;51.982;-8.514;2023-06-22T08:23:31;3.17;;;2.25;;
80679;SDS011;70043;51.982;-8.514;2023-06-22T08:25:59;4.65;;;2.60;;
80679;SDS011;70043;51.982;-8.514;2023-06-22T08:28:28;3.17;;;2.05;;
80679;SDS011;70043;51.982;-8.514;2023-06-22T08:30:56;5.97;;;2.60;;
80679;SDS011;70043;51.982;-8.514;2023-06-22T08:33:26;3.38;;;1.83;;
80679;SDS011;70043;51.982;-8.514;2023-06-22T08:35:57;3.95;;;2.47;;
80679;SDS011;70043;51.982;-8.514;2023-06-22T08:38:25;4.63;;;2.15;;
80679;SDS011;70043;51.982;-8.514;2023-06-22T08:40:54;4.18;;;2.30;;
80679;SDS011;70043;51.982;-8.514;2023-06-22T08:43:22;3.67;;;1.88;;
80679;SDS011;70043;51.982;-8.514;2023-06-22T08:45:50;3.13;;;1.63;;
80679;SDS011;70043;51.982;-8.514;2023-06-22T08:48:18;4.10;;;1.90;;
80679;SDS011;70043;51.982;-8.514;2023-06-22T08:50:46;3.10;;;1.73;;
80679;SDS011;70043;51.982;-8.514;2023-06-22T08:53:15;3.20;;;1.83;;
80679;SDS011;70043;51.982;-8.514;2023-06-22T08:55:43;4.78;;;2.33;;
80679;SDS011;70043;51.982;-8.514;2023-06-22T08:58:16;2.97;;;1.67;;
80679;SDS011;70043;51.982;-8.514;2023-06-22T09:00:45;3.08;;;1.70;;
80679;SDS011;70043;51.982;-8.514;2023-06-22T09:03:14;4.75;;;2.25;;
80679;SDS011;70043;51.982;-8.514;2023-06-22T09:05:42;4.47;;;2.35;;
80679;SDS011;70043;51.982;-8.514;2023-06-22T09:08:10;2.97;;;2.13;;
80679;SDS011;70043;51.982;-8.514;2023-06-22T09:10:40;7.45;;;2.28;;
80679;SDS011;70043;51.982;-8.514;2023-06-22T09:13:07;4.35;;;2.47;;
80679;SDS011;70043;51.982;-8.514;2023-06-22T09:15:35;4.28;;;2.75;;
80679;SDS011;70043;51.982;-8.514;2023-06-22T09:18:03;5.10;;;2.72;;
80679;SDS011;70043;51.982;-8.514;2023-06-22T09:20:31;4.90;;;2.70;;
80679;SDS011;70043;51.982;-8.514;2023-06-22T09:22:59;6.35;;;2.40;;
80679;SDS011;70043;51.982;-8.514;2023-06-22T09:25:27;4.70;;;2.90;;
80679;SDS011;70043;51.982;-8.514;2023-06-22T09:27:57;4.38;;;2.60;;
80679;SDS011;70043;51.982;-8.514;2023-06-22T09:30:24;4.45;;;2.35;;
80679;SDS011;70043;51.982;-8.514;2023-06-22T09:32:52;4.53;;;2.30;;
80679;SDS011;70043;51.982;-8.514;2023-06-22T09:35:20;5.65;;;2.42;;
80679;SDS011;70043;51.982;-8.514;2023-06-22T09:37:49;5.25;;;3.00;;
80679;SDS011;70043;51.982;-8.514;2023-06-22T09:40:17;5.00;;;2.00;;
80679;SDS011;70043;51.982;-8.514;2023-06-22T09:42:47;4.13;;;2.28;;
80679;SDS011;70043;51.982;-8.514;2023-06-22T09:45:17;4.13;;;1.90;;
80679;SDS011;70043;51.982;-8.514;2023-06-22T09:47:44;4.05;;;2.10;;
80679;SDS011;70043;51.982;-8.514;2023-06-22T09:50:15;4.30;;;2.15;;
80679;SDS011;70043;51.982;-8.514;2023-06-22T09:52:43;6.22;;;2.72;;
80679;SDS011;70043;51.982;-8.514;2023-06-22T09:55:15;4.65;;;2.47;;
80679;SDS011;70043;51.982;-8.514;2023-06-22T09:57:47;4.45;;;2.03;;
80679;SDS011;70043;51.982;-8.514;2023-06-22T10:00:22;2.30;;;1.58;;
80679;SDS011;70043;51.982;-8.514;2023-06-22T10:02:51;4.05;;;2.05;;
80679;SDS011;70043;51.982;-8.514;2023-06-22T10:05:20;3.08;;;1.88;;
80679;SDS011;70043;51.982;-8.514;2023-06-22T10:07:50;2.70;;;1.58;;
80679;SDS011;70043;51.982;-8.514;2023-06-22T10:10:18;3.13;;;2.17;;
80679;SDS011;70043;51.982;-8.514;2023-06-22T10:12:47;3.63;;;1.80;;
80679;SDS011;70043;51.982;-8.514;2023-06-22T10:15:24;3.63;;;1.83;;
80679;SDS011;70043;51.982;-8.514;2023-06-22T10:17:52;3.05;;;2.05;;
80679;SDS011;70043;51.982;-8.514;2023-06-22T10:20:21;2.80;;;1.98;;
80679;SDS011;70043;51.982;-8.514;2023-06-22T10:22:50;3.75;;;1.98;;
80679;SDS011;70043;51.982;-8.514;2023-06-22T10:25:18;3.08;;;1.85;;
80679;SDS011;70043;51.982;-8.514;2023-06-22T10:27:47;4.32;;;2.40;;
80679;SDS011;70043;51.982;-8.514;2023-06-22T10:30:15;4.15;;;1.77;;
80679;SDS011;70043;51.982;-8.514;2023-06-22T10:32:44;3.40;;;1.88;;
80679;SDS011;70043;51.982;-8.514;2023-06-22T10:35:12;3.42;;;2.28;;
80679;SDS011;70043;51.982;-8.514;2023-06-22T10:37:47;4.38;;;1.80;;
80679;SDS011;70043;51.982;-8.514;2023-06-22T10:40:16;3.75;;;2.30;;
80679;SDS011;70043;51.982;-8.514;2023-06-22T10:42:45;4.28;;;2.10;;
80679;SDS011;70043;51.982;-8.514;2023-06-22T10:45:15;3.90;;;2.00;;
80679;SDS011;70043;51.982;-8.514;2023-06-22T10:47:45;5.05;;;2.70;;
80679;SDS011;70043;51.982;-8.514;2023-06-22T10:50:12;4.72;;;2.92;;
80679;SDS011;70043;51.982;-8.514;2023-06-22T10:52:40;4.35;;;2.40;;
80679;SDS011;70043;51.982;-8.514;2023-06-22T10:55:08;5.15;;;2.80;;
80679;SDS011;70043;51.982;-8.514;2023-06-22T10:57:39;3.63;;;1.95;;
80679;SDS011;70043;51.982;-8.514;2023-06-22T11:00:09;2.80;;;1.58;;
80679;SDS011;70043;51.982;-8.514;2023-06-22T11:02:38;2.85;;;1.73;;
80679;SDS011;70043;51.982;-8.514;2023-06-22T11:05:08;3.55;;;2.03;;
80679;SDS011;70043;51.982;-8.514;2023-06-22T11:07:36;3.97;;;2.15;;
80679;SDS011;70043;51.982;-8.514;2023-06-22T11:10:06;4.05;;;1.90;;
80679;SDS011;70043;51.982;-8.514;2023-06-22T11:12:35;3.20;;;1.92;;
80679;SDS011;70043;51.982;-8.514;2023-06-22T11:15:04;3.63;;;2.35;;
80679;SDS011;70043;51.982;-8.514;2023-06-22T11:17:32;4.63;;;2.30;;
80679;SDS011;70043;51.982;-8.514;2023-06-22T11:20:05;3.45;;;1.73;;
80679;SDS011;70043;51.982;-8.514;2023-06-22T11:22:36;3.08;;;1.95;;
80679;SDS011;70043;51.982;-8.514;2023-06-22T11:25:04;2.95;;;2.00;;
80679;SDS011;70043;51.982;-8.514;2023-06-22T11:27:36;2.65;;;2.05;;
80679;SDS011;70043;51.982;-8.514;2023-06-22T11:30:07;2.83;;;1.83;;
80679;SDS011;70043;51.982;-8.514;2023-06-22T11:32:36;3.67;;;2.22;;
80679;SDS011;70043;51.982;-8.514;2023-06-22T11:35:04;4.80;;;2.38;;
80679;SDS011;70043;51.982;-8.514;2023-06-22T11:37:34;3.38;;;2.47;;
80679;SDS011;70043;51.982;-8.514;2023-06-22T11:40:02;2.53;;;1.60;;
80679;SDS011;70043;51.982;-8.514;2023-06-22T11:42:36;4.78;;;2.63;;
80679;SDS011;70043;51.982;-8.514;2023-06-22T11:45:07;5.47;;;2.15;;
80679;SDS011;70043;51.982;-8.514;2023-06-22T11:47:35;3.58;;;1.77;;
80679;SDS011;70043;51.982;-8.514;2023-06-22T11:50:05;3.08;;;1.85;;
80679;SDS011;70043;51.982;-8.514;2023-06-22T11:52:35;2.83;;;2.00;;
80679;SDS011;70043;51.982;-8.514;2023-06-22T11:55:03;3.38;;;2.08;;
80679;SDS011;70043;51.982;-8.514;2023-06-22T11:57:32;3.30;;;1.77;;
80679;SDS011;70043;51.982;-8.514;2023-06-22T12:00:01;2.50;;;1.73;;
80679;SDS011;70043;51.982;-8.514;2023-06-22T12:02:40;2.33;;;1.60;;
80679;SDS011;70043;51.982;-8.514;2023-06-22T12:05:08;3.03;;;1.63;;
80679;SDS011;70043;51.982;-8.514;2023-06-22T12:07:37;3.75;;;2.00;;
80679;SDS011;70043;51.982;-8.514;2023-06-22T12:10:06;3.78;;;2.13;;
80679;SDS011;70043;51.982;-8.514;2023-06-22T12:12:34;2.63;;;1.45;;
80679;SDS011;70043;51.982;-8.514;2023-06-22T12:15:03;4.72;;;1.73;;
80679;SDS011;70043;51.982;-8.514;2023-06-22T12:17:33;3.53;;;2.20;;
80679;SDS011;70043;51.982;-8.514;2023-06-22T12:20:01;4.78;;;2.08;;
80679;SDS011;70043;51.982;-8.514;2023-06-22T12:22:30;2.10;;;1.70;;
80679;SDS011;70043;51.982;-8.514;2023-06-22T12:25:04;3.65;;;2.00;;
80679;SDS011;70043;51.982;-8.514;2023-06-22T12:27:36;3.15;;;1.95;;
80679;SDS011;70043;51.982;-8.514;2023-06-22T12:30:04;4.53;;;2.10;;
80679;SDS011;70043;51.982;-8.514;2023-06-22T12:32:33;5.68;;;1.92;;
80679;SDS011;70043;51.982;-8.514;2023-06-22T12:35:01;3.33;;;2.45;;
80679;SDS011;70043;51.982;-8.514;2023-06-22T12:37:37;5.28;;;1.92;;
80679;SDS011;70043;51.982;-8.514;2023-06-22T12:40:11;4.28;;;2.05;;
80679;SDS011;70043;51.982;-8.514;2023-06-22T12:42:39;5.32;;;2.22;;
80679;SDS011;70043;51.982;-8.514;2023-06-22T12:45:08;2.33;;;1.60;;
80679;SDS011;70043;51.982;-8.514;2023-06-22T12:47:37;2.50;;;1.63;;
80679;SDS011;70043;51.982;-8.514;2023-06-22T12:50:06;3.28;;;1.65;;
80679;SDS011;70043;51.982;-8.514;2023-06-22T12:52:36;2.95;;;1.30;;
80679;SDS011;70043;51.982;-8.514;2023-06-22T12:55:06;3.08;;;1.52;;
80679;SDS011;70043;51.982;-8.514;2023-06-22T12:57:38;2.40;;;1.70;;
80679;SDS011;70043;51.982;-8.514;2023-06-22T13:02:36;2.22;;;1.77;;
80679;SDS011;70043;51.982;-8.514;2023-06-22T13:05:07;3.33;;;1.55;;
80679;SDS011;70043;51.982;-8.514;2023-06-22T13:07:35;2.75;;;1.38;;
80679;SDS011;70043;51.982;-8.514;2023-06-22T13:10:03;2.58;;;1.45;;
80679;SDS011;70043;51.982;-8.514;2023-06-22T13:12:31;3.25;;;1.23;;
80679;SDS011;70043;51.982;-8.514;2023-06-22T13:15:00;5.55;;;1.35;;
80679;SDS011;70043;51.982;-8.514;2023-06-22T13:17:29;3.35;;;1.25;;
80679;SDS011;70043;51.982;-8.514;2023-06-22T13:19:57;2.03;;;1.20;;
80679;SDS011;70043;51.982;-8.514;2023-06-22T13:22:29;2.78;;;1.85;;
80679;SDS011;70043;51.982;-8.514;2023-06-22T13:24:57;2.60;;;1.55;;
80679;SDS011;70043;51.982;-8.514;2023-06-22T13:27:25;3.42;;;1.50;;
80679;SDS011;70043;51.982;-8.514;2023-06-22T13:29:53;1.85;;;1.10;;
80679;SDS011;70043;51.982;-8.514;2023-06-22T13:32:23;1.92;;;1.42;;
80679;SDS011;70043;51.982;-8.514;2023-06-22T13:34:52;2.13;;;1.48;;
80679;SDS011;70043;51.982;-8.514;2023-06-22T13:37:20;1.83;;;1.10;;
80679;SDS011;70043;51.982;-8.514;2023-06-22T13:39:47;2.13;;;1.20;;
80679;SDS011;70043;51.982;-8.514;2023-06-22T13:42:17;3.03;;;1.50;;
80679;SDS011;70043;51.982;-8.514;2023-06-22T13:44:54;2.70;;;1.63;;
80679;SDS011;70043;51.982;-8.514;2023-06-22T13:47:24;2.60;;;1.52;;
80679;SDS011;70043;51.982;-8.514;2023-06-22T13:49:51;1.73;;;1.25;;
80679;SDS011;70043;51.982;-8.514;2023-06-22T13:52:19;1.85;;;1.38;;
80679;SDS011;70043;51.982;-8.514;2023-06-22T13:54:47;2.25;;;1.48;;
80679;SDS011;70043;51.982;-8.514;2023-06-22T13:57:15;3.30;;;1.80;;
80679;SDS011;70043;51.982;-8.514;2023-06-22T13:59:45;3.85;;;1.55;;
80679;SDS011;70043;51.982;-8.514;2023-06-22T14:02:14;2.85;;;1.60;;
80679;SDS011;70043;51.982;-8.514;2023-06-22T14:04:44;4.05;;;1.65;;
80679;SDS011;70043;51.982;-8.514;2023-06-22T14:07:12;2.95;;;1.20;;
80679;SDS011;70043;51.982;-8.514;2023-06-22T14:09:40;3.35;;;1.65;;
80679;SDS011;70043;51.982;-8.514;2023-06-22T14:12:08;4.80;;;1.75;;
80679;SDS011;70043;51.982;-8.514;2023-06-22T14:14:36;2.85;;;1.33;;
80679;SDS011;70043;51.982;-8.514;2023-06-22T14:17:04;2.42;;;1.45;;
80679;SDS011;70043;51.982;-8.514;2023-06-22T14:19:32;2.92;;;2.00;;
80679;SDS011;70043;51.982;-8.514;2023-06-22T14:22:05;3.45;;;2.15;;
80679;SDS011;70043;51.982;-8.514;2023-06-22T14:24:34;2.88;;;1.58;;
80679;SDS011;70043;51.982;-8.514;2023-06-22T14:27:03;2.75;;;1.58;;
80679;SDS011;70043;51.982;-8.514;2023-06-22T14:29:33;3.15;;;1.85;;
80679;SDS011;70043;51.982;-8.514;2023-06-22T14:32:01;3.90;;;2.10;;
80679;SDS011;70043;51.982;-8.514;2023-06-22T14:34:30;3.85;;;1.60;;
80679;SDS011;70043;51.982;-8.514;2023-06-22T14:37:01;2.70;;;1.85;;
80679;SDS011;70043;51.982;-8.514;2023-06-22T14:39:32;2.42;;;1.60;;
80679;SDS011;70043;51.982;-8.514;2023-06-22T14:42:00;1.75;;;1.33;;
80679;SDS011;70043;51.982;-8.514;2023-06-22T14:44:31;2.50;;;1.30;;
80679;SDS011;70043;51.982;-8.514;2023-06-22T14:46:59;2.65;;;1.48;;
80679;SDS011;70043;51.982;-8.514;2023-06-22T14:49:27;2.33;;;1.60;;
80679;SDS011;70043;51.982;-8.514;2023-06-22T14:51:55;1.48;;;1.02;;
80679;SDS011;70043;51.982;-8.514;2023-06-22T14:54:23;3.08;;;1.90;;
80679;SDS011;70043;51.982;-8.514;2023-06-22T14:56:52;3.42;;;1.95;;
80679;SDS011;70043;51.982;-8.514;2023-06-22T14:59:20;2.13;;;1.45;;